Soleil Weather Down

Nearby METAR Reports

 

KCNI - Canton/Cherokee, Georgia, USA
Distance from station: ENE 6mi, 10km
Updated: Mon, 20-Jan-2020 11:50pm EST
Clear
Clear
 Wind from calm
Wind: Calm
Temperature: 25°F , -4°C
Dew Point: 16°F , -9°C
Humidity: 69%
Barometer: 30.35 inHg , 1027.8 hPa
Clouds: Clear
Visibility: 10 miles , 16 km
2020/01/21 04:50 KCNI 210450Z AUTO 00000KT 10SM CLR M04/M09 A3035 RMK AO2
KRYY - Marietta Mccolum, Georgia, USA
Distance from station: SSW 18mi, 29km
Updated: Mon, 20-Jan-2020 11:50pm EST
Clear
Clear
 Wind from varies
Wind: varies 6 mph , 9 km/h
Temperature: 25°F , -4°C
Wind Chill: 18°F , -8°C
Dew Point: 14°F , -10°C
Humidity: 63%
Barometer: 30.37 inHg , 1028.4 hPa
Clouds: Clear
Visibility: 10 miles , 16 km
2020/01/21 04:50 KRYY 210450Z AUTO VRB05KT 10SM CLR M04/M10 A3037 RMK AO2 SLP005 P0001 T10441100 FZRANO $
KVPC - Cartersville, Georgia, USA
Distance from station: WSW 22mi, 35km
Updated: Mon, 20-Jan-2020 11:53pm EST
Clear
Clear
 Wind from calm
Wind: Calm
Temperature: 25°F , -4°C
Dew Point: 16°F , -9°C
Humidity: 69%
Barometer: 30.41 inHg , 1029.8 hPa
Clouds: Clear
Visibility: 10 miles , 16 km
2020/01/21 04:53 KVPC 210453Z AUTO 00000KT 10SM CLR M04/M09 A3041 RMK AO2 SLP299 T10441094 400331044
 
KMGE - Dobbins Afb/Mari, Georgia, USA
Distance from station: S 24mi, 39km
Updated: Mon, 20-Jan-2020 11:56pm EST
Clear
Clear
 Wind from NW
Wind: NW 9 mph , 15 km/h
Temperature: 25°F , -4°C
Wind Chill: 16°F , -9°C
Dew Point: 12°F , -11°C
Humidity: 59%
Barometer: 30.34 inHg , 1027.4 hPa
Clouds: Clear
Visibility: 10 miles , 16 km
2020/01/21 04:56 KMGE 210456Z AUTO 32008KT 10SM CLR M04/M11 A3034 RMK AO2 SLP287 T10421106 400241050 $
KPDK - Peachtree/Dekalb, Georgia, USA
Distance from station: SSE 29mi, 47km
Updated: Mon, 20-Jan-2020 11:53pm EST
Clear
Clear
 Wind from NW
Wind: NW 7 mph , 11 km/h
Temperature: 25°F , -4°C
Wind Chill: 17°F , -8°C
Dew Point: 14°F , -10°C
Humidity: 63%
Barometer: 30.35 inHg , 1027.8 hPa
Clouds: Clear
Visibility: 10 miles , 16 km
2020/01/21 04:53 KPDK 210453Z AUTO 32006KT 10SM CLR M04/M10 A3035 RMK AO2 SLP298 T10441100 400221050
KFTY - Atlanta/Fulton, Georgia, USA
Distance from station: S 34mi, 54km
Updated: Mon, 20-Jan-2020 11:53pm EST
Clear
Clear
 Wind from NNW
Wind: NNW 6 mph , 9 km/h
Temperature: 27°F , -3°C
Wind Chill: 20°F , -7°C
Dew Point: 12°F , -11°C
Humidity: 54%
Barometer: 30.37 inHg , 1028.4 hPa
Clouds: Clear
Visibility: 10 miles , 16 km
2020/01/21 04:53 KFTY 210453Z 33005KT 10SM CLR M03/M11 A3037 RMK AO2 SLP291 T10331106 400281044
 
KPUJ - Atlanta/Paulding, Georgia, USA
Distance from station: SW 34mi, 55km
Updated: Tue, 21-Jan-2020 12:15am EST
Clear
Clear
 Wind from NW
Wind: NW 10 mph , 17 km/h
Temperature: 23°F , -5°C
Wind Chill: 13°F , -11°C
Dew Point: 14°F , -10°C
Humidity: 68%
Barometer: 30.34 inHg , 1027.4 hPa
Clouds: Clear
Visibility: 10 miles , 16 km
2020/01/21 05:15 KPUJ 210515Z AUTO 32009KT 10SM CLR M05/M10 A3034 RMK AO2
KDNN - Dalton, Georgia, USA
Distance from station: NW 37mi, 59km
Updated: Mon, 20-Jan-2020 11:55pm EST
Clear
Clear
 Wind from N
Wind: N 9 mph , 15 km/h
Temperature: 28°F , -2°C
Wind Chill: 19°F , -7°C
Dew Point: 14°F , -10°C
Humidity: 55%
Barometer: 30.43 inHg , 1030.5 hPa
Clouds: Clear
Visibility: 10 miles , 16 km
2020/01/21 04:55 KDNN 210455Z AUTO 35008KT 10SM CLR M02/M10 A3043 RMK AO2
KLZU - Lawrenceville, Georgia, USA
Distance from station: ESE 37mi, 59km
Updated: Mon, 20-Jan-2020 11:56pm EST
Clear
Clear
 Wind from calm
Wind: Calm
Temperature: 25°F , -4°C
Dew Point: 18°F , -8°C
Humidity: 74%
Barometer: 30.34 inHg , 1027.4 hPa
Clouds: Clear
Visibility: 10 miles , 16 km
2020/01/21 04:56 KLZU 210456Z AUTO 00000KT 10SM CLR M04/M08 A3034 RMK AO2 SLP295 T10391083 400391039 FZRANO
 
KRMG - Rome, Georgia, USA
Distance from station: W 38mi, 61km
Updated: Mon, 20-Jan-2020 11:53pm EST
Clear
Clear
 Wind from N
Wind: N 8 mph , 13 km/h
Temperature: 25°F , -4°C
Wind Chill: 16°F , -9°C
Dew Point: 12°F , -11°C
Humidity: 59%
Barometer: 30.41 inHg , 1029.8 hPa
Clouds: Clear
Visibility: 10 miles , 16 km
2020/01/21 04:53 KRMG 210453Z AUTO 36007KT 10SM CLR M04/M11 A3041 RMK AO2 SLP302 T10391106 400331044 $
KGVL - Gainesville, Georgia, USA
Distance from station: E 39mi, 62km
Updated: Mon, 20-Jan-2020 11:53pm EST
Clear
Clear
 Wind from calm
Wind: Calm
Temperature: 25°F , -4°C
Dew Point: 18°F , -8°C
Humidity: 74%
Barometer: 30.34 inHg , 1027.4 hPa
Clouds: Clear
Visibility: 10 miles , 16 km
2020/01/21 04:53 KGVL 210453Z AUTO 00000KT 10SM CLR M04/M08 A3034 RMK AO2 SLP282 T10391078 400391039
KATL - Atlanta, Georgia, USA
Distance from station: S 44mi, 71km
Updated: Mon, 20-Jan-2020 11:52pm EST
Clear
Clear
 Wind from NNW
Wind: NNW 8 mph , 13 km/h
Temperature: 27°F , -3°C
Wind Chill: 19°F , -7°C
Dew Point: 14°F , -10°C
Humidity: 59%
Barometer: 30.35 inHg , 1027.8 hPa
Clouds: Clear
Visibility: 10 miles , 16 km
2020/01/21 04:52 KATL 210452Z 33007KT 10SM CLR M03/M10 A3035 RMK AO2 SLP288 T10331100 400331039